KNA831 ZPPP-ZGDY
Flight info
| Callsign | KNA831 |
|---|---|
| Flight time | 1h 14m |
| Altitude | 37100 |
| Route | NODIB4Q NODIB W137 LPS A581 HUY HUY1A |
| Aircraft | B738/M-SDE2E3FGHIRWXY/LB1 |
Departure
| Time | 2026-04-27 13:16 |
|---|---|
| Airport | Kunming Changshui International Airport (ZPPP) |
Arrival
| Time | 2026-04-27 14:30 |
|---|---|
| Airport | Zhangjiajie Hehua International Airport (ZGDY) |
| Time | Latitude | Longitude | Altitude | Speed | Heading |
|---|---|---|---|---|---|
| 2026-04-27 12:48 | 25.10220 | 102.93308 | 6911 ft | 0 kts | 11° |
| 2026-04-27 12:59 | 25.10215 | 102.93308 | 6911 ft | 2 kts | 11° |
| 2026-04-27 13:00 | 25.10201 | 102.93304 | 6911 ft | 2 kts | 11° |
| 2026-04-27 13:00 | 25.10186 | 102.93301 | 6911 ft | 2 kts | 11° |
| 2026-04-27 13:00 | 25.10171 | 102.93298 | 6911 ft | 2 kts | 11° |
| 2026-04-27 13:00 | 25.10158 | 102.93291 | 6911 ft | 2 kts | 52° |
| 2026-04-27 13:01 | 25.10151 | 102.93276 | 6911 ft | 2 kts | 84° |
| 2026-04-27 13:01 | 25.10151 | 102.93265 | 6911 ft | 1 kts | 102° |
| 2026-04-27 13:01 | 25.10153 | 102.93259 | 6911 ft | 0 kts | 104° |
| 2026-04-27 13:04 | 25.10152 | 102.93263 | 6911 ft | 1 kts | 104° |
| 2026-04-27 13:04 | 25.10149 | 102.93276 | 6911 ft | 3 kts | 103° |
| 2026-04-27 13:05 | 25.10147 | 102.93288 | 6911 ft | 3 kts | 102° |
| 2026-04-27 13:05 | 25.10142 | 102.93317 | 6911 ft | 4 kts | 101° |
| 2026-04-27 13:05 | 25.10134 | 102.93349 | 6911 ft | 4 kts | 104° |
| 2026-04-27 13:05 | 25.10127 | 102.93385 | 6911 ft | 4 kts | 103° |
| 2026-04-27 13:06 | 25.10124 | 102.93398 | 6911 ft | 2 kts | 102° |
| 2026-04-27 13:06 | 25.10119 | 102.93424 | 6911 ft | 4 kts | 102° |
| 2026-04-27 13:06 | 25.10109 | 102.93468 | 6911 ft | 7 kts | 107° |
| 2026-04-27 13:06 | 25.10079 | 102.93538 | 6911 ft | 12 kts | 123° |
| 2026-04-27 13:07 | 25.10037 | 102.93636 | 6911 ft | 16 kts | 79° |
| 2026-04-27 13:07 | 25.10132 | 102.93735 | 6911 ft | 21 kts | 37° |
| 2026-04-27 13:07 | 25.10264 | 102.93847 | 6911 ft | 26 kts | 38° |
| 2026-04-27 13:07 | 25.10407 | 102.93971 | 6911 ft | 25 kts | 37° |
| 2026-04-27 13:08 | 25.10544 | 102.94091 | 6911 ft | 20 kts | 38° |
| 2026-04-27 13:08 | 25.10611 | 102.94180 | 6911 ft | 15 kts | 102° |
| 2026-04-27 13:08 | 25.10617 | 102.94280 | 6911 ft | 15 kts | 40° |
| 2026-04-27 13:08 | 25.10705 | 102.94356 | 6911 ft | 16 kts | 38° |
| 2026-04-27 13:09 | 25.10800 | 102.94439 | 6911 ft | 18 kts | 38° |
| 2026-04-27 13:09 | 25.10904 | 102.94527 | 6911 ft | 19 kts | 38° |
| 2026-04-27 13:09 | 25.11016 | 102.94624 | 6910 ft | 21 kts | 38° |
| 2026-04-27 13:09 | 25.11134 | 102.94728 | 6910 ft | 22 kts | 39° |
| 2026-04-27 13:10 | 25.11262 | 102.94838 | 6910 ft | 23 kts | 38° |
| 2026-04-27 13:10 | 25.11398 | 102.94955 | 6910 ft | 25 kts | 38° |
| 2026-04-27 13:10 | 25.11528 | 102.95068 | 6910 ft | 20 kts | 37° |
| 2026-04-27 13:10 | 25.11645 | 102.95170 | 6910 ft | 22 kts | 39° |
| 2026-04-27 13:11 | 25.11773 | 102.95280 | 6910 ft | 23 kts | 38° |
| 2026-04-27 13:11 | 25.11903 | 102.95395 | 6910 ft | 24 kts | 38° |
| 2026-04-27 13:11 | 25.12044 | 102.95514 | 6910 ft | 26 kts | 37° |
| 2026-04-27 13:11 | 25.12178 | 102.95626 | 6910 ft | 20 kts | 37° |
| 2026-04-27 13:12 | 25.12243 | 102.95697 | 6910 ft | 12 kts | 81° |
| 2026-04-27 13:12 | 25.12223 | 102.95742 | 6910 ft | 0 kts | 132° |
| 2026-04-27 13:13 | 25.12213 | 102.95754 | 6910 ft | 3 kts | 134° |
| 2026-04-27 13:13 | 25.12192 | 102.95777 | 6910 ft | 4 kts | 134° |
| 2026-04-27 13:13 | 25.12166 | 102.95808 | 6910 ft | 5 kts | 137° |
| 2026-04-27 13:13 | 25.12125 | 102.95818 | 6910 ft | 6 kts | 198° |
| 2026-04-27 13:14 | 25.12101 | 102.95799 | 6910 ft | 0 kts | 218° |
| 2026-04-27 13:14 | 25.11997 | 102.95709 | 6910 ft | 52 kts | 218° |
| 2026-04-27 13:15 | 25.11523 | 102.95299 | 6910 ft | 118 kts | 219° |
| 2026-04-27 13:15 | 25.10721 | 102.94611 | 6933 ft | 167 kts | 218° |
| 2026-04-27 13:15 | 25.09837 | 102.93810 | 7154 ft | 166 kts | 217° |
| 2026-04-27 13:15 | 25.08813 | 102.93195 | 7264 ft | 167 kts | 198° |
| 2026-04-27 13:16 | 25.07700 | 102.92645 | 7498 ft | 187 kts | 216° |
| 2026-04-27 13:16 | 25.06717 | 102.91711 | 8304 ft | 189 kts | 222° |
| 2026-04-27 13:16 | 25.05719 | 102.90745 | 8863 ft | 198 kts | 220° |
| 2026-04-27 13:16 | 25.04551 | 102.89860 | 9313 ft | 213 kts | 204° |
| 2026-04-27 13:17 | 25.02995 | 102.89722 | 9715 ft | 235 kts | 171° |
| 2026-04-27 13:17 | 25.01467 | 102.90531 | 10106 ft | 257 kts | 146° |
| 2026-04-27 13:17 | 25.00236 | 102.92026 | 10471 ft | 279 kts | 122° |
| 2026-04-27 13:17 | 24.99768 | 102.94127 | 11010 ft | 291 kts | 90° |
| 2026-04-27 13:18 | 25.00079 | 102.96329 | 11723 ft | 293 kts | 76° |
| 2026-04-27 13:18 | 25.00596 | 102.98512 | 12261 ft | 303 kts | 75° |
| 2026-04-27 13:18 | 25.01107 | 103.00760 | 12988 ft | 307 kts | 76° |
| 2026-04-27 13:18 | 25.01574 | 103.03089 | 13578 ft | 320 kts | 78° |
| 2026-04-27 13:19 | 25.02019 | 103.05545 | 14053 ft | 336 kts | 79° |
| 2026-04-27 13:19 | 25.02468 | 103.08145 | 14546 ft | 351 kts | 79° |
| 2026-04-27 13:19 | 25.02932 | 103.10841 | 15028 ft | 366 kts | 79° |
| 2026-04-27 13:19 | 25.03411 | 103.13612 | 15640 ft | 376 kts | 79° |
| 2026-04-27 13:20 | 25.03898 | 103.16444 | 16412 ft | 380 kts | 79° |
| 2026-04-27 13:20 | 25.04410 | 103.19315 | 17222 ft | 383 kts | 78° |
| 2026-04-27 13:20 | 25.05146 | 103.22162 | 17777 ft | 392 kts | 66° |
| 2026-04-27 13:20 | 25.06633 | 103.24638 | 18582 ft | 390 kts | 43° |
| 2026-04-27 13:21 | 25.08753 | 103.26534 | 19217 ft | 394 kts | 33° |
| 2026-04-27 13:21 | 25.11011 | 103.28210 | 19934 ft | 397 kts | 31° |
| 2026-04-27 13:21 | 25.13347 | 103.29894 | 20629 ft | 401 kts | 31° |
| 2026-04-27 13:21 | 25.15694 | 103.31587 | 21286 ft | 405 kts | 31° |
| 2026-04-27 13:22 | 25.18021 | 103.33292 | 21911 ft | 409 kts | 32° |
| 2026-04-27 13:22 | 25.20412 | 103.35078 | 22502 ft | 414 kts | 32° |
| 2026-04-27 13:22 | 25.22787 | 103.36874 | 23203 ft | 416 kts | 33° |
| 2026-04-27 13:22 | 25.25181 | 103.38697 | 23797 ft | 420 kts | 33° |
| 2026-04-27 13:23 | 25.27583 | 103.40535 | 24374 ft | 424 kts | 33° |
| 2026-04-27 13:23 | 25.30019 | 103.42402 | 25017 ft | 426 kts | 33° |
| 2026-04-27 13:23 | 25.32455 | 103.44264 | 25551 ft | 431 kts | 33° |
| 2026-04-27 13:23 | 25.34940 | 103.46175 | 26156 ft | 433 kts | 34° |
| 2026-04-27 13:24 | 25.37389 | 103.48067 | 26701 ft | 436 kts | 34° |
| 2026-04-27 13:24 | 25.39889 | 103.50002 | 27211 ft | 440 kts | 34° |
| 2026-04-27 13:24 | 25.42399 | 103.51944 | 27738 ft | 443 kts | 34° |
| 2026-04-27 13:24 | 25.44937 | 103.53911 | 28235 ft | 447 kts | 34° |
| 2026-04-27 13:25 | 25.47489 | 103.55887 | 28730 ft | 450 kts | 34° |
| 2026-04-27 13:25 | 25.50036 | 103.57904 | 29246 ft | 452 kts | 37° |
| 2026-04-27 13:25 | 25.52401 | 103.60226 | 29722 ft | 456 kts | 45° |
| 2026-04-27 13:25 | 25.54464 | 103.62859 | 30185 ft | 460 kts | 51° |
| 2026-04-27 13:26 | 25.56363 | 103.65712 | 30756 ft | 461 kts | 54° |
| 2026-04-27 13:26 | 25.58153 | 103.68631 | 31462 ft | 457 kts | 56° |
| 2026-04-27 13:26 | 25.59891 | 103.71577 | 32261 ft | 451 kts | 57° |
| 2026-04-27 13:26 | 25.61566 | 103.74473 | 32984 ft | 446 kts | 57° |
| 2026-04-27 13:27 | 25.63204 | 103.77326 | 33694 ft | 443 kts | 57° |
| 2026-04-27 13:27 | 25.64862 | 103.80221 | 34320 ft | 440 kts | 57° |
| 2026-04-27 13:27 | 25.66501 | 103.83079 | 34808 ft | 441 kts | 56° |
| 2026-04-27 13:27 | 25.68155 | 103.85966 | 35272 ft | 441 kts | 56° |
| 2026-04-27 13:28 | 25.69791 | 103.88815 | 35711 ft | 442 kts | 56° |
| 2026-04-27 13:28 | 25.71457 | 103.91710 | 36199 ft | 442 kts | 56° |
| 2026-04-27 13:28 | 25.73098 | 103.94559 | 36711 ft | 440 kts | 56° |
| 2026-04-27 13:28 | 25.74738 | 103.97400 | 37210 ft | 438 kts | 56° |
| 2026-04-27 13:29 | 25.78077 | 104.03174 | 37272 ft | 444 kts | 56° |
| 2026-04-27 13:29 | 25.81381 | 104.08891 | 37272 ft | 436 kts | 55° |
| 2026-04-27 13:30 | 25.84680 | 104.14525 | 37258 ft | 437 kts | 55° |
| 2026-04-27 13:30 | 25.88012 | 104.20174 | 37253 ft | 440 kts | 55° |
| 2026-04-27 13:31 | 25.91371 | 104.25878 | 37238 ft | 439 kts | 55° |
| 2026-04-27 13:31 | 25.94710 | 104.31572 | 37227 ft | 440 kts | 55° |
| 2026-04-27 13:32 | 25.98023 | 104.37239 | 37214 ft | 441 kts | 55° |
| 2026-04-27 13:32 | 26.01362 | 104.42948 | 37216 ft | 440 kts | 54° |
| 2026-04-27 13:33 | 26.05258 | 104.48151 | 37203 ft | 439 kts | 41° |
| 2026-04-27 13:33 | 26.09926 | 104.52557 | 37192 ft | 438 kts | 36° |
| 2026-04-27 13:34 | 26.14718 | 104.56774 | 37191 ft | 439 kts | 36° |
| 2026-04-27 13:34 | 26.19474 | 104.61034 | 37187 ft | 439 kts | 37° |
| 2026-04-27 13:35 | 26.24213 | 104.65357 | 37189 ft | 439 kts | 38° |
| 2026-04-27 13:35 | 26.28931 | 104.69701 | 37195 ft | 441 kts | 38° |
| 2026-04-27 13:36 | 26.33642 | 104.74071 | 37196 ft | 442 kts | 38° |
| 2026-04-27 13:36 | 26.38376 | 104.78494 | 37189 ft | 442 kts | 38° |
| 2026-04-27 13:37 | 26.43121 | 104.82931 | 37193 ft | 442 kts | 38° |
| 2026-04-27 13:37 | 26.47841 | 104.87360 | 37193 ft | 442 kts | 38° |
| 2026-04-27 13:38 | 26.52550 | 104.91773 | 37192 ft | 443 kts | 38° |
| 2026-04-27 13:38 | 26.57286 | 104.96213 | 37189 ft | 445 kts | 38° |
| 2026-04-27 13:39 | 26.61981 | 105.00668 | 37184 ft | 444 kts | 43° |
| 2026-04-27 13:39 | 26.65655 | 105.06267 | 37197 ft | 448 kts | 60° |
| 2026-04-27 13:40 | 26.68386 | 105.12515 | 37196 ft | 450 kts | 64° |
| 2026-04-27 13:40 | 26.70939 | 105.18879 | 37201 ft | 449 kts | 65° |
| 2026-04-27 13:41 | 26.73470 | 105.25236 | 37203 ft | 450 kts | 65° |
| 2026-04-27 13:41 | 26.76036 | 105.31620 | 37203 ft | 450 kts | 65° |
| 2026-04-27 13:42 | 26.78567 | 105.38010 | 37190 ft | 450 kts | 65° |
| 2026-04-27 13:42 | 26.81117 | 105.44460 | 37183 ft | 451 kts | 65° |
| 2026-04-27 13:43 | 26.83660 | 105.50857 | 37177 ft | 451 kts | 65° |
| 2026-04-27 13:43 | 26.86216 | 105.57290 | 37168 ft | 453 kts | 65° |
| 2026-04-27 13:44 | 26.88771 | 105.63720 | 37176 ft | 452 kts | 65° |
| 2026-04-27 13:44 | 26.91322 | 105.70133 | 37169 ft | 452 kts | 65° |
| 2026-04-27 13:45 | 26.93881 | 105.76591 | 37160 ft | 454 kts | 66° |
| 2026-04-27 13:45 | 26.96441 | 105.83069 | 37159 ft | 454 kts | 65° |
| 2026-04-27 13:46 | 26.99000 | 105.89526 | 37150 ft | 453 kts | 65° |
| 2026-04-27 13:46 | 27.01543 | 105.95976 | 37144 ft | 453 kts | 66° |
| 2026-04-27 13:47 | 27.04101 | 106.02432 | 37136 ft | 454 kts | 65° |
| 2026-04-27 13:47 | 27.06805 | 106.08787 | 37139 ft | 454 kts | 62° |
| 2026-04-27 13:48 | 27.09729 | 106.15067 | 37137 ft | 454 kts | 61° |
| 2026-04-27 13:48 | 27.12663 | 106.21345 | 37133 ft | 455 kts | 61° |
| 2026-04-27 13:49 | 27.15558 | 106.27637 | 37136 ft | 453 kts | 61° |
| 2026-04-27 13:49 | 27.18443 | 106.33942 | 37128 ft | 454 kts | 62° |
| 2026-04-27 13:50 | 27.21319 | 106.40278 | 37122 ft | 455 kts | 61° |
| 2026-04-27 13:50 | 27.24189 | 106.46572 | 37113 ft | 455 kts | 61° |
| 2026-04-27 13:51 | 27.27076 | 106.52921 | 37100 ft | 454 kts | 61° |
| 2026-04-27 13:51 | 27.29935 | 106.59207 | 37096 ft | 456 kts | 61° |
| 2026-04-27 13:52 | 27.32801 | 106.65556 | 37091 ft | 453 kts | 62° |
| 2026-04-27 13:52 | 27.35638 | 106.71849 | 37091 ft | 455 kts | 62° |
| 2026-04-27 13:53 | 27.39944 | 106.81422 | 37088 ft | 456 kts | 62° |
| 2026-04-27 13:54 | 27.42777 | 106.87759 | 37092 ft | 455 kts | 62° |
| 2026-04-27 13:54 | 27.45633 | 106.94147 | 37093 ft | 457 kts | 61° |
| 2026-04-27 13:55 | 27.48483 | 107.00530 | 37096 ft | 454 kts | 61° |
| 2026-04-27 13:55 | 27.51340 | 107.06845 | 37096 ft | 455 kts | 60° |
| 2026-04-27 13:56 | 27.54215 | 107.13198 | 37092 ft | 456 kts | 61° |
| 2026-04-27 13:56 | 27.57093 | 107.19582 | 37088 ft | 456 kts | 61° |
| 2026-04-27 13:57 | 27.59964 | 107.25926 | 37084 ft | 457 kts | 60° |
| 2026-04-27 13:57 | 27.62857 | 107.32338 | 37076 ft | 455 kts | 60° |
| 2026-04-27 13:58 | 27.65712 | 107.38705 | 37070 ft | 455 kts | 60° |
| 2026-04-27 13:58 | 27.68575 | 107.45084 | 37067 ft | 457 kts | 61° |
| 2026-04-27 13:59 | 27.71415 | 107.51427 | 37064 ft | 455 kts | 60° |
| 2026-04-27 13:59 | 27.74312 | 107.57853 | 37062 ft | 457 kts | 61° |
| 2026-04-27 14:00 | 27.77161 | 107.64231 | 37063 ft | 455 kts | 60° |
| 2026-04-27 14:00 | 27.80014 | 107.70599 | 37074 ft | 456 kts | 60° |
| 2026-04-27 14:01 | 27.82875 | 107.77032 | 37080 ft | 457 kts | 61° |
| 2026-04-27 14:01 | 27.85743 | 107.83398 | 37069 ft | 456 kts | 60° |
| 2026-04-27 14:02 | 27.88646 | 107.89753 | 37065 ft | 457 kts | 60° |
| 2026-04-27 14:02 | 27.91553 | 107.96100 | 37057 ft | 453 kts | 60° |
| 2026-04-27 14:03 | 27.94463 | 108.02439 | 37057 ft | 456 kts | 60° |
| 2026-04-27 14:03 | 27.97356 | 108.08804 | 37053 ft | 456 kts | 60° |
| 2026-04-27 14:04 | 28.00242 | 108.15179 | 37056 ft | 456 kts | 59° |
| 2026-04-27 14:04 | 28.03120 | 108.21519 | 36859 ft | 458 kts | 60° |
| 2026-04-27 14:04 | 28.04571 | 108.24730 | 36556 ft | 458 kts | 60° |
| 2026-04-27 14:05 | 28.06017 | 108.27933 | 36256 ft | 455 kts | 60° |
| 2026-04-27 14:05 | 28.07463 | 108.31132 | 35954 ft | 453 kts | 60° |
| 2026-04-27 14:05 | 28.08890 | 108.34295 | 35661 ft | 453 kts | 60° |
| 2026-04-27 14:05 | 28.10312 | 108.37447 | 35371 ft | 454 kts | 60° |
| 2026-04-27 14:06 | 28.11759 | 108.40649 | 35073 ft | 456 kts | 60° |
| 2026-04-27 14:06 | 28.13204 | 108.43852 | 34782 ft | 458 kts | 60° |
| 2026-04-27 14:06 | 28.14659 | 108.47077 | 34486 ft | 460 kts | 60° |
| 2026-04-27 14:06 | 28.16096 | 108.50267 | 34193 ft | 460 kts | 60° |
| 2026-04-27 14:07 | 28.17558 | 108.53528 | 33895 ft | 459 kts | 60° |
| 2026-04-27 14:07 | 28.18995 | 108.56743 | 33607 ft | 459 kts | 60° |
| 2026-04-27 14:07 | 28.20446 | 108.59984 | 33296 ft | 460 kts | 60° |
| 2026-04-27 14:07 | 28.21881 | 108.63183 | 32682 ft | 460 kts | 60° |
| 2026-04-27 14:08 | 28.23344 | 108.66434 | 31984 ft | 460 kts | 61° |
| 2026-04-27 14:08 | 28.24778 | 108.69632 | 31479 ft | 456 kts | 61° |
| 2026-04-27 14:08 | 28.26211 | 108.72827 | 30917 ft | 453 kts | 62° |
| 2026-04-27 14:08 | 28.27617 | 108.75968 | 30359 ft | 450 kts | 62° |
| 2026-04-27 14:09 | 28.29018 | 108.79114 | 29789 ft | 448 kts | 62° |
| 2026-04-27 14:09 | 28.30421 | 108.82266 | 29208 ft | 445 kts | 62° |
| 2026-04-27 14:09 | 28.31808 | 108.85384 | 28645 ft | 443 kts | 62° |
| 2026-04-27 14:09 | 28.33185 | 108.88476 | 28079 ft | 441 kts | 62° |
| 2026-04-27 14:10 | 28.34553 | 108.91550 | 27510 ft | 439 kts | 62° |
| 2026-04-27 14:10 | 28.35920 | 108.94630 | 26933 ft | 437 kts | 62° |
| 2026-04-27 14:10 | 28.37278 | 108.97696 | 26357 ft | 435 kts | 62° |
| 2026-04-27 14:10 | 28.38631 | 109.00750 | 25786 ft | 432 kts | 62° |
| 2026-04-27 14:11 | 28.39981 | 109.03798 | 25217 ft | 430 kts | 62° |
| 2026-04-27 14:11 | 28.41312 | 109.06807 | 24659 ft | 427 kts | 62° |
| 2026-04-27 14:11 | 28.42644 | 109.09800 | 24104 ft | 425 kts | 62° |
| 2026-04-27 14:11 | 28.43961 | 109.12765 | 23556 ft | 422 kts | 62° |
| 2026-04-27 14:12 | 28.45273 | 109.15723 | 22998 ft | 420 kts | 62° |
| 2026-04-27 14:12 | 28.46572 | 109.18664 | 22445 ft | 418 kts | 62° |
| 2026-04-27 14:12 | 28.47871 | 109.21622 | 21900 ft | 416 kts | 62° |
| 2026-04-27 14:12 | 28.49150 | 109.24540 | 21351 ft | 414 kts | 62° |
| 2026-04-27 14:13 | 28.50428 | 109.27461 | 20797 ft | 412 kts | 62° |
| 2026-04-27 14:13 | 28.51698 | 109.30365 | 20245 ft | 409 kts | 62° |
| 2026-04-27 14:13 | 28.52951 | 109.33214 | 19707 ft | 407 kts | 62° |
| 2026-04-27 14:13 | 28.54221 | 109.36090 | 19150 ft | 404 kts | 62° |
| 2026-04-27 14:14 | 28.55510 | 109.38923 | 18615 ft | 401 kts | 61° |
| 2026-04-27 14:14 | 28.56765 | 109.41738 | 18073 ft | 398 kts | 62° |
| 2026-04-27 14:14 | 28.57987 | 109.44534 | 17539 ft | 395 kts | 62° |
| 2026-04-27 14:14 | 28.59273 | 109.47244 | 17009 ft | 391 kts | 59° |
| 2026-04-27 14:15 | 28.60663 | 109.49895 | 16482 ft | 388 kts | 58° |
| 2026-04-27 14:15 | 28.62090 | 109.52476 | 15946 ft | 385 kts | 56° |
| 2026-04-27 14:15 | 28.63520 | 109.55000 | 15427 ft | 381 kts | 56° |
| 2026-04-27 14:15 | 28.64929 | 109.57509 | 14914 ft | 377 kts | 56° |
| 2026-04-27 14:16 | 28.66314 | 109.60018 | 14402 ft | 373 kts | 56° |
| 2026-04-27 14:16 | 28.67694 | 109.62504 | 13896 ft | 369 kts | 57° |
| 2026-04-27 14:16 | 28.69035 | 109.64962 | 13400 ft | 366 kts | 57° |
| 2026-04-27 14:16 | 28.70357 | 109.67448 | 12898 ft | 362 kts | 59° |
| 2026-04-27 14:17 | 28.71630 | 109.69880 | 12404 ft | 358 kts | 59° |
| 2026-04-27 14:17 | 28.72923 | 109.72303 | 11912 ft | 354 kts | 58° |
| 2026-04-27 14:17 | 28.74192 | 109.74670 | 11432 ft | 351 kts | 58° |
| 2026-04-27 14:17 | 28.75452 | 109.77038 | 10945 ft | 348 kts | 58° |
| 2026-04-27 14:18 | 28.76693 | 109.79372 | 10518 ft | 343 kts | 58° |
| 2026-04-27 14:18 | 28.77919 | 109.81661 | 10096 ft | 338 kts | 58° |
| 2026-04-27 14:18 | 28.79133 | 109.83907 | 9918 ft | 325 kts | 58° |
| 2026-04-27 14:18 | 28.80303 | 109.86052 | 9709 ft | 315 kts | 58° |
| 2026-04-27 14:19 | 28.81453 | 109.88187 | 9224 ft | 316 kts | 58° |
| 2026-04-27 14:19 | 28.82571 | 109.90300 | 8791 ft | 313 kts | 59° |
| 2026-04-27 14:19 | 28.83691 | 109.92416 | 8392 ft | 309 kts | 58° |
| 2026-04-27 14:19 | 28.84836 | 109.94481 | 8005 ft | 306 kts | 57° |
| 2026-04-27 14:20 | 28.86134 | 109.96349 | 7756 ft | 298 kts | 46° |
| 2026-04-27 14:20 | 28.87801 | 109.97740 | 7289 ft | 300 kts | 30° |
| 2026-04-27 14:20 | 28.89635 | 109.98846 | 6873 ft | 297 kts | 29° |
| 2026-04-27 14:20 | 28.91429 | 109.99942 | 6504 ft | 293 kts | 32° |
| 2026-04-27 14:21 | 28.93163 | 110.01154 | 6126 ft | 288 kts | 35° |
| 2026-04-27 14:21 | 28.94818 | 110.02413 | 5766 ft | 284 kts | 36° |
| 2026-04-27 14:21 | 28.96430 | 110.03673 | 5404 ft | 279 kts | 36° |
| 2026-04-27 14:21 | 28.98030 | 110.04935 | 5051 ft | 275 kts | 37° |
| 2026-04-27 14:22 | 28.99445 | 110.06316 | 4870 ft | 263 kts | 46° |
| 2026-04-27 14:22 | 29.00732 | 110.07752 | 4774 ft | 251 kts | 45° |
| 2026-04-27 14:22 | 29.01913 | 110.09139 | 4686 ft | 238 kts | 52° |
| 2026-04-27 14:22 | 29.02766 | 110.10700 | 4597 ft | 225 kts | 69° |
| 2026-04-27 14:23 | 29.03162 | 110.12369 | 4553 ft | 213 kts | 78° |
| 2026-04-27 14:23 | 29.03461 | 110.13988 | 4486 ft | 199 kts | 76° |
| 2026-04-27 14:23 | 29.03816 | 110.15447 | 4410 ft | 185 kts | 72° |
| 2026-04-27 14:23 | 29.04152 | 110.16822 | 4339 ft | 172 kts | 76° |
| 2026-04-27 14:24 | 29.04441 | 110.18079 | 4294 ft | 155 kts | 75° |
| 2026-04-27 14:24 | 29.04658 | 110.19202 | 4233 ft | 137 kts | 76° |
| 2026-04-27 14:24 | 29.04907 | 110.20208 | 4124 ft | 126 kts | 73° |
| 2026-04-27 14:24 | 29.05158 | 110.21149 | 4070 ft | 125 kts | 71° |
| 2026-04-27 14:25 | 29.05379 | 110.22111 | 4072 ft | 127 kts | 76° |
| 2026-04-27 14:25 | 29.05602 | 110.23134 | 4121 ft | 134 kts | 73° |
| 2026-04-27 14:25 | 29.05866 | 110.24152 | 4056 ft | 133 kts | 74° |
| 2026-04-27 14:25 | 29.06052 | 110.25167 | 3973 ft | 130 kts | 80° |
| 2026-04-27 14:26 | 29.06253 | 110.26160 | 3972 ft | 129 kts | 70° |
| 2026-04-27 14:26 | 29.06538 | 110.27190 | 3809 ft | 139 kts | 76° |
| 2026-04-27 14:26 | 29.06728 | 110.28270 | 3473 ft | 137 kts | 77° |
| 2026-04-27 14:26 | 29.06953 | 110.29266 | 3269 ft | 124 kts | 71° |
| 2026-04-27 14:27 | 29.07171 | 110.30200 | 3148 ft | 124 kts | 75° |
| 2026-04-27 14:27 | 29.07387 | 110.31194 | 3062 ft | 134 kts | 74° |
| 2026-04-27 14:27 | 29.07631 | 110.32265 | 2787 ft | 142 kts | 72° |
| 2026-04-27 14:27 | 29.07866 | 110.33334 | 2549 ft | 135 kts | 74° |
| 2026-04-27 14:28 | 29.08086 | 110.34354 | 2390 ft | 135 kts | 73° |
| 2026-04-27 14:28 | 29.08323 | 110.35426 | 2187 ft | 139 kts | 73° |
| 2026-04-27 14:28 | 29.08562 | 110.36491 | 1988 ft | 137 kts | 73° |
| 2026-04-27 14:28 | 29.08797 | 110.37553 | 1795 ft | 141 kts | 74° |
| 2026-04-27 14:29 | 29.09037 | 110.38635 | 1593 ft | 139 kts | 73° |
| 2026-04-27 14:29 | 29.09275 | 110.39699 | 1407 ft | 140 kts | 72° |
| 2026-04-27 14:29 | 29.09521 | 110.40782 | 1168 ft | 140 kts | 74° |
| 2026-04-27 14:29 | 29.09742 | 110.41872 | 977 ft | 139 kts | 73° |
| 2026-04-27 14:30 | 29.09989 | 110.42950 | 803 ft | 141 kts | 72° |
| 2026-04-27 14:30 | 29.10222 | 110.43993 | 741 ft | 120 kts | 75° |
| 2026-04-27 14:30 | 29.10361 | 110.44652 | 741 ft | 53 kts | 75° |
| 2026-04-27 14:30 | 29.10412 | 110.44889 | 740 ft | 22 kts | 72° |
| 2026-04-27 14:31 | 29.10478 | 110.45043 | 740 ft | 21 kts | 53° |
| 2026-04-27 14:31 | 29.10567 | 110.45154 | 740 ft | 9 kts | 45° |
| 2026-04-27 14:31 | 29.10615 | 110.45182 | 740 ft | 7 kts | 342° |
| 2026-04-27 14:31 | 29.10639 | 110.45137 | 740 ft | 6 kts | 269° |
| 2026-04-27 14:32 | 29.10629 | 110.45084 | 740 ft | 7 kts | 256° |
| 2026-04-27 14:32 | 29.10614 | 110.45021 | 740 ft | 9 kts | 253° |
| 2026-04-27 14:32 | 29.10597 | 110.44944 | 740 ft | 11 kts | 255° |
| 2026-04-27 14:32 | 29.10576 | 110.44852 | 740 ft | 12 kts | 256° |
| 2026-04-27 14:33 | 29.10546 | 110.44749 | 740 ft | 14 kts | 253° |
| 2026-04-27 14:33 | 29.10517 | 110.44628 | 741 ft | 16 kts | 254° |
| 2026-04-27 14:33 | 29.10490 | 110.44499 | 741 ft | 12 kts | 256° |
| 2026-04-27 14:33 | 29.10475 | 110.44430 | 741 ft | 6 kts | 265° |
| 2026-04-27 14:34 | 29.10491 | 110.44402 | 741 ft | 0 kts | 358° |
| 2026-04-27 14:34 | 29.10505 | 110.44400 | 741 ft | 3 kts | 349° |
| 2026-04-27 14:34 | 29.10522 | 110.44394 | 741 ft | 0 kts | 343° |